Andromeda — SYMH — position and weather

sailwx.info

Track history (hours):
 
Tides and Currents Weather Stations Pressure Air Temp Water Temp Dewpoint Dewpoint Depression Visibility Wind Speed Wind Dir Waves Ship Positions

Andromeda

Last reported at 2017-Dec-10 19:26 UTC. Time now 2017-Dec-13 22:46 UTC.
Position N 36°08' E 014°51'.

; draft 7.9 m.

Type: Ship. MMSI: 240597000.

Date/timePositionNaut miles runAvg speedWind from/ knotsBaromVisibWave heightAir tempDewpointWater temp
2017-Dec-10 19:26N 36°08' E 014°51'613.1
2017-Dec-10 18:57N 36°03' E 014°46'612.9
2017-Dec-10 18:30N 35°59' E 014°42'713.0
2017-Dec-10 18:00N 35°53' E 014°37'4 7.1
2017-Dec-10 17:30N 35°50' E 014°36'0 0.2
2017-Dec-10 16:59N 35°50' E 014°37'0 0.0
2017-Dec-10 16:29N 35°50' E 014°37'0 0.0
2017-Dec-10 16:00N 35°50' E 014°37'0 0.1
2017-Dec-10 15:30N 35°50' E 014°37'0 0.0
2017-Dec-10 15:00N 35°50' E 014°37'0 0.0
2017-Dec-10 14:26N 35°50' E 014°37'0 0.0
2017-Dec-10 14:00N 35°50' E 014°37'0 0.0
2017-Dec-10 13:30N 35°50' E 014°37'0 0.0
2017-Dec-10 13:00N 35°50' E 014°37'0 0.0
2017-Dec-10 12:28N 35°50' E 014°37'0 0.0
2017-Dec-10 12:00N 35°50' E 014°37'0 0.0
2017-Dec-10 11:30N 35°50' E 014°37'0 0.1
2017-Dec-10 10:59N 35°50' E 014°37'0 0.0
2017-Dec-10 10:30N 35°50' E 014°37'0 0.0
2017-Dec-10 10:00N 35°50' E 014°37'0 0.0
2017-Dec-10 09:30N 35°50' E 014°37'0 0.0
2017-Dec-10 09:00N 35°50' E 014°37'0 0.0
2017-Dec-10 08:31N 35°50' E 014°37'0 0.0
2017-Dec-10 08:01N 35°50' E 014°37'0 0.0
2017-Dec-10 07:30N 35°50' E 014°37'0 0.0
2017-Dec-10 07:00N 35°50' E 014°37'0 0.0
2017-Dec-10 06:30N 35°50' E 014°37'0 0.0
2017-Dec-10 06:00N 35°50' E 014°37'0 0.0
2017-Dec-10 05:30N 35°50' E 014°37'0 0.0
2017-Dec-10 04:59N 35°50' E 014°37'0 0.0
2017-Dec-10 04:30N 35°50' E 014°37'0 0.0
2017-Dec-10 04:00N 35°50' E 014°37'0 0.0
2017-Dec-10 03:30N 35°50' E 014°37'0 0.0
2017-Dec-10 03:00N 35°50' E 014°37'0 0.0
2017-Dec-10 02:29N 35°50' E 014°37'0 0.0
2017-Dec-10 02:00N 35°50' E 014°36'0 0.0
2017-Dec-10 01:27N 35°50' E 014°36'0 0.0
2017-Dec-10 00:56N 35°50' E 014°36'0 0.0
2017-Dec-10 00:30N 35°50' E 014°37'0 0.0
2017-Dec-09 23:58N 35°50' E 014°37'0 0.0
2017-Dec-09 23:30N 35°50' E 014°37'0 0.0
2017-Dec-09 22:59N 35°50' E 014°37'0 0.0
2017-Dec-09 22:30N 35°50' E 014°37'0 0.0
2017-Dec-09 21:58N 35°50' E 014°36'0 0.0
2017-Dec-09 21:29N 35°50' E 014°37'0 0.0
2017-Dec-09 20:59N 35°50' E 014°37'0 0.0
2017-Dec-09 20:30N 35°50' E 014°37'0 0.0
2017-Dec-09 20:00N 35°50' E 014°37'0 0.0
2017-Dec-09 19:30N 35°50' E 014°37'0 0.0
2017-Dec-09 19:00N 35°50' E 014°37'0 0.0
2017-Dec-09 18:30N 35°50' E 014°37'0 0.0
2017-Dec-09 18:00N 35°50' E 014°37'0 0.1
2017-Dec-09 17:30N 35°50' E 014°37'0 0.1
2017-Dec-09 16:59N 35°50' E 014°37'0 0.9
2017-Dec-09 16:30N 35°50' E 014°37'0 0.8
2017-Dec-09 16:00N 35°50' E 014°37'1 2.7
2017-Dec-09 15:30N 35°50' E 014°38'4 7.9
2017-Dec-09 15:00N 35°50' E 014°43'4 8.4
2017-Dec-09 14:29N 35°53' E 014°47'0 0.4
2017-Dec-09 14:00N 35°53' E 014°47'0 0.1
2017-Dec-09 13:30N 35°53' E 014°47'0 0.0
2017-Dec-09 13:00N 35°53' E 014°47'0 0.0
2017-Dec-09 12:30N 35°53' E 014°47'0 0.0
2017-Dec-09 12:00N 35°53' E 014°47'0 0.0
2017-Dec-09 11:30N 35°53' E 014°47'0 0.0
2017-Dec-09 11:00N 35°53' E 014°47'0 0.1
2017-Dec-09 10:30N 35°53' E 014°47'0 0.1
2017-Dec-09 10:00N 35°53' E 014°47'0 0.1
2017-Dec-09 09:30N 35°53' E 014°47'1 2.0
2017-Dec-09 09:00N 35°52' E 014°48'3 5.8
2017-Dec-09 08:30N 35°52' E 014°52'41112.6
2017-Dec-07 23:46N 35°10' E 023°14'513.4
2017-Dec-07 23:22N 35°09' E 023°20'129 6.4
2017-Dec-07 03:13N 34°52' E 025°56'0 0.5
2017-Dec-07 02:58N 34°52' E 025°57'  
Track history (hours):
 
Tides and Currents Weather Stations Pressure Air Temp Water Temp Dewpoint Dewpoint Depression Visibility Wind Speed Wind Dir Waves Ship Positions

Andromeda

Last reported at 2017-Dec-10 19:26 UTC. Time now 2017-Dec-13 22:46 UTC.
Position N 36°08' E 014°51'.

; draft 7.9 m.

Type: Ship. MMSI: 240597000.

Date/timePositionNaut miles runAvg speedWind from/ knotsBaromVisibWave heightAir tempDewpointWater temp
2017-Dec-10 19:26N 36°08' E 014°51'613.1
2017-Dec-10 18:57N 36°03' E 014°46'612.9
2017-Dec-10 18:30N 35°59' E 014°42'713.0
2017-Dec-10 18:00N 35°53' E 014°37'4 7.1
2017-Dec-10 17:30N 35°50' E 014°36'0 0.2
2017-Dec-10 16:59N 35°50' E 014°37'0 0.0
2017-Dec-10 16:29N 35°50' E 014°37'0 0.0
2017-Dec-10 16:00N 35°50' E 014°37'0 0.1
2017-Dec-10 15:30N 35°50' E 014°37'0 0.0
2017-Dec-10 15:00N 35°50' E 014°37'0 0.0
2017-Dec-10 14:26N 35°50' E 014°37'0 0.0
2017-Dec-10 14:00N 35°50' E 014°37'0 0.0
2017-Dec-10 13:30N 35°50' E 014°37'0 0.0
2017-Dec-10 13:00N 35°50' E 014°37'0 0.0
2017-Dec-10 12:28N 35°50' E 014°37'0 0.0
2017-Dec-10 12:00N 35°50' E 014°37'0 0.0
2017-Dec-10 11:30N 35°50' E 014°37'0 0.1
2017-Dec-10 10:59N 35°50' E 014°37'0 0.0
2017-Dec-10 10:30N 35°50' E 014°37'0 0.0
2017-Dec-10 10:00N 35°50' E 014°37'0 0.0
2017-Dec-10 09:30N 35°50' E 014°37'0 0.0
2017-Dec-10 09:00N 35°50' E 014°37'0 0.0
2017-Dec-10 08:31N 35°50' E 014°37'0 0.0
2017-Dec-10 08:01N 35°50' E 014°37'0 0.0
2017-Dec-10 07:30N 35°50' E 014°37'0 0.0
2017-Dec-10 07:00N 35°50' E 014°37'0 0.0
2017-Dec-10 06:30N 35°50' E 014°37'0 0.0
2017-Dec-10 06:00N 35°50' E 014°37'0 0.0
2017-Dec-10 05:30N 35°50' E 014°37'0 0.0
2017-Dec-10 04:59N 35°50' E 014°37'0 0.0
2017-Dec-10 04:30N 35°50' E 014°37'0 0.0
2017-Dec-10 04:00N 35°50' E 014°37'0 0.0
2017-Dec-10 03:30N 35°50' E 014°37'0 0.0
2017-Dec-10 03:00N 35°50' E 014°37'0 0.0
2017-Dec-10 02:29N 35°50' E 014°37'0 0.0
2017-Dec-10 02:00N 35°50' E 014°36'0 0.0
2017-Dec-10 01:27N 35°50' E 014°36'0 0.0
2017-Dec-10 00:56N 35°50' E 014°36'0 0.0
2017-Dec-10 00:30N 35°50' E 014°37'0 0.0
2017-Dec-09 23:58N 35°50' E 014°37'0 0.0
2017-Dec-09 23:30N 35°50' E 014°37'0 0.0
2017-Dec-09 22:59N 35°50' E 014°37'0 0.0
2017-Dec-09 22:30N 35°50' E 014°37'0 0.0
2017-Dec-09 21:58N 35°50' E 014°36'0 0.0
2017-Dec-09 21:29N 35°50' E 014°37'0 0.0
2017-Dec-09 20:59N 35°50' E 014°37'0 0.0
2017-Dec-09 20:30N 35°50' E 014°37'0 0.0
2017-Dec-09 20:00N 35°50' E 014°37'0 0.0
2017-Dec-09 19:30N 35°50' E 014°37'0 0.0
2017-Dec-09 19:00N 35°50' E 014°37'0 0.0
2017-Dec-09 18:30N 35°50' E 014°37'0 0.0
2017-Dec-09 18:00N 35°50' E 014°37'0 0.1
2017-Dec-09 17:30N 35°50' E 014°37'0 0.1
2017-Dec-09 16:59N 35°50' E 014°37'0 0.9
2017-Dec-09 16:30N 35°50' E 014°37'0 0.8
2017-Dec-09 16:00N 35°50' E 014°37'1 2.7
2017-Dec-09 15:30N 35°50' E 014°38'4 7.9
2017-Dec-09 15:00N 35°50' E 014°43'4 8.4
2017-Dec-09 14:29N 35°53' E 014°47'0 0.4
2017-Dec-09 14:00N 35°53' E 014°47'0 0.1
2017-Dec-09 13:30N 35°53' E 014°47'0 0.0
2017-Dec-09 13:00N 35°53' E 014°47'0 0.0
2017-Dec-09 12:30N 35°53' E 014°47'0 0.0
2017-Dec-09 12:00N 35°53' E 014°47'0 0.0
2017-Dec-09 11:30N 35°53' E 014°47'0 0.0
2017-Dec-09 11:00N 35°53' E 014°47'0 0.1
2017-Dec-09 10:30N 35°53' E 014°47'0 0.1
2017-Dec-09 10:00N 35°53' E 014°47'0 0.1
2017-Dec-09 09:30N 35°53' E 014°47'1 2.0
2017-Dec-09 09:00N 35°52' E 014°48'3 5.8
2017-Dec-09 08:30N 35°52' E 014°52'41112.6
2017-Dec-07 23:46N 35°10' E 023°14'513.4
2017-Dec-07 23:22N 35°09' E 023°20'129 6.4
2017-Dec-07 03:13N 34°52' E 025°56'0 0.5
2017-Dec-07 02:58N 34°52' E 025°57'  

Dump ship's entire track history